Time;durP1;ratioP1;P1;durP2;ratioP2;P2;SDS_P1;SDS_P2;PMS_P1;PMS_P2;Temp;Humidity;BMP_temperature;BMP_pressure;BME280_temperature;BME280_humidity;BME280_pressure;Samples;Min_cycle;Max_cycle;Signal;HPM_P1;HPM_P2
2021/05/05 00:00:18;;;;;;;6.43;2.33;;;;;;;;;;5059903;28;20016;-83
2021/05/05 00:02:44;;;;;;;9.70;2.13;;;;;;;;;;5060520;28;20104;-83
2021/05/05 00:05:09;;;;;;;5.20;1.90;;;;;;;;;;5056267;28;20071;-83
2021/05/05 00:07:35;;;;;;;5.53;2.10;;;;;;;;;;5061346;28;20526;-83
2021/05/05 00:10:00;;;;;;;5.83;2.57;;;;;;;;;;5054138;28;20056;-83
2021/05/05 00:12:25;;;;;;;5.47;2.30;;;;;;;;;;5061325;28;20123;-83
2021/05/05 00:14:50;;;;;;;10.00;2.03;;;;;;;;;;5061474;28;20021;-83
2021/05/05 00:17:15;;;;;;;7.93;2.23;;;;;;;;;;5058980;28;20012;-82
2021/05/05 00:19:41;;;;;;;5.97;2.30;;;;;;;;;;5062858;28;20020;-83
2021/05/05 00:22:07;;;;;;;7.93;2.00;;;;;;;;;;5056060;28;20417;-83
2021/05/05 00:24:32;;;;;;;6.87;1.90;;;;;;;;;;5066259;28;20029;-83
2021/05/05 00:26:58;;;;;;;7.73;1.97;;;;;;;;;;5092296;28;20041;-84
2021/05/05 00:29:23;;;;;;;4.40;1.70;;;;;;;;;;5088476;28;20389;-83
2021/05/05 00:31:48;;;;;;;8.03;2.20;;;;;;;;;;5058197;28;20048;-83
2021/05/05 00:34:13;;;;;;;4.73;1.60;;;;;;;;;;5060259;28;20032;-83
2021/05/05 00:36:38;;;;;;;3.33;1.70;;;;;;;;;;5057736;28;20028;-83
2021/05/05 00:39:04;;;;;;;3.37;1.83;;;;;;;;;;5059534;28;20106;-83
2021/05/05 00:41:29;;;;;;;6.77;2.00;;;;;;;;;;5056541;28;20020;-84
2021/05/05 00:43:55;;;;;;;6.10;1.70;;;;;;;;;;5058935;28;20021;-83
2021/05/05 00:46:20;;;;;;;3.30;1.80;;;;;;;;;;5061905;28;20120;-83
2021/05/05 00:48:45;;;;;;;9.57;2.30;;;;;;;;;;5059381;28;20035;-83
2021/05/05 00:51:10;;;;;;;6.57;2.20;;;;;;;;;;5060667;28;20013;-83
2021/05/05 00:53:36;;;;;;;9.63;2.50;;;;;;;;;;5058890;28;20032;-83
2021/05/05 00:56:01;;;;;;;10.47;2.40;;;;;;;;;;5059841;28;20358;-83
2021/05/05 00:58:27;;;;;;;6.27;2.20;;;;;;;;;;5054744;28;20028;-83
2021/05/05 01:00:52;;;;;;;11.20;2.90;;;;;;;;;;5060270;28;20029;-83
2021/05/05 01:03:18;;;;;;;7.40;2.40;;;;;;;;;;5053391;28;20025;-82
2021/05/05 01:05:43;;;;;;;5.93;2.67;;;;;;;;;;5060345;28;20024;-83
2021/05/05 01:08:09;;;;;;;9.23;2.23;;;;;;;;;;5052823;28;20419;-83
2021/05/05 01:10:34;;;;;;;9.23;2.40;;;;;;;;;;5060495;28;20153;-83
2021/05/05 01:13:00;;;;;;;9.70;2.43;;;;;;;;;;5061275;28;20035;-83
2021/05/05 01:15:25;;;;;;;7.83;2.23;;;;;;;;;;5056284;28;20104;-83
2021/05/05 01:17:50;;;;;;;7.13;2.50;;;;;;;;;;5060971;28;20026;-83
2021/05/05 01:20:16;;;;;;;11.17;2.57;;;;;;;;;;5053129;28;20567;-83
2021/05/05 01:22:41;;;;;;;9.10;2.70;;;;;;;;;;5061876;28;20016;-83
2021/05/05 01:25:07;;;;;;;9.70;3.10;;;;;;;;;;5057179;28;20029;-83
2021/05/05 01:27:32;;;;;;;11.33;2.60;;;;;;;;;;5060809;28;20102;-83
2021/05/05 01:29:57;;;;;;;7.40;3.10;;;;;;;;;;5057691;28;20060;-83
2021/05/05 01:32:22;;;;;;;9.50;2.80;;;;;;;;;;5059071;28;20127;-83
2021/05/05 01:34:48;;;;;;;9.03;2.60;;;;;;;;;;5056333;28;20460;-84
2021/05/05 01:37:14;;;;;;;10.60;2.90;;;;;;;;;;5058210;28;20416;-83
2021/05/05 01:39:40;;;;;;;11.93;3.00;;;;;;;;;;5054216;28;20052;-83
2021/05/05 01:42:06;;;;;;;9.10;2.60;;;;;;;;;;5057892;28;20464;-83
2021/05/05 01:44:33;;;;;;;5.87;2.30;;;;;;;;;;5061081;28;20067;-83
2021/05/05 01:46:58;;;;;;;6.73;2.77;;;;;;;;;;5051701;28;20032;-83
2021/05/05 01:49:25;;;;;;;12.17;3.17;;;;;;;;;;5050392;28;20025;-82
2021/05/05 01:51:52;;;;;;;13.07;3.30;;;;;;;;;;5051921;28;20078;-84
2021/05/05 01:54:18;;;;;;;7.50;2.67;;;;;;;;;;5051926;28;20032;-83
2021/05/05 01:56:43;;;;;;;10.37;3.10;;;;;;;;;;5051619;28;20021;-83
2021/05/05 01:59:08;;;;;;;11.33;2.80;;;;;;;;;;5051657;28;20384;-83
2021/05/05 02:01:33;;;;;;;6.37;2.83;;;;;;;;;;5051781;28;20020;-83
2021/05/05 02:04:01;;;;;;;7.17;3.00;;;;;;;;;;5051641;28;20099;-83
2021/05/05 02:06:27;;;;;;;10.33;3.50;;;;;;;;;;5051498;28;20056;-83
2021/05/05 02:08:53;;;;;;;8.47;2.90;;;;;;;;;;5051734;28;20064;-83
2021/05/05 02:11:18;;;;;;;7.87;3.07;;;;;;;;;;5051237;28;20027;-83
2021/05/05 02:13:43;;;;;;;10.00;3.33;;;;;;;;;;5051592;28;20064;-83
2021/05/05 02:16:09;;;;;;;8.10;3.57;;;;;;;;;;5080275;28;20029;-82
2021/05/05 02:18:34;;;;;;;12.33;3.60;;;;;;;;;;5051012;28;20475;-83
2021/05/05 02:20:59;;;;;;;8.97;3.60;;;;;;;;;;5051131;28;20139;-84
2021/05/05 02:23:24;;;;;;;12.73;3.83;;;;;;;;;;5051108;28;20479;-83
2021/05/05 02:25:49;;;;;;;8.27;3.60;;;;;;;;;;5051281;28;20055;-83
2021/05/05 02:28:15;;;;;;;9.33;4.00;;;;;;;;;;5081520;28;20021;-83
2021/05/05 02:30:40;;;;;;;9.37;3.83;;;;;;;;;;5052667;28;20017;-83
2021/05/05 02:33:05;;;;;;;6.63;3.87;;;;;;;;;;5051071;28;20020;-83
2021/05/05 02:35:30;;;;;;;10.20;3.23;;;;;;;;;;5050970;28;20116;-83
2021/05/05 02:37:55;;;;;;;8.83;3.63;;;;;;;;;;5051125;28;20020;-84
2021/05/05 02:40:21;;;;;;;11.57;3.40;;;;;;;;;;5052254;28;20448;-83
2021/05/05 02:42:46;;;;;;;8.17;3.43;;;;;;;;;;5051167;28;20469;-83
2021/05/05 02:45:11;;;;;;;12.77;3.40;;;;;;;;;;5050782;28;20472;-83
2021/05/05 02:47:36;;;;;;;11.60;3.53;;;;;;;;;;5051216;28;20025;-83
2021/05/05 02:50:02;;;;;;;8.20;3.30;;;;;;;;;;5051212;28;20131;-83
2021/05/05 02:52:27;;;;;;;8.40;3.40;;;;;;;;;;5050474;28;20127;-83
2021/05/05 02:54:53;;;;;;;12.30;3.80;;;;;;;;;;5050928;28;20024;-83
2021/05/05 02:57:18;;;;;;;11.73;3.83;;;;;;;;;;5050366;28;20029;-83
2021/05/05 02:59:43;;;;;;;13.60;3.40;;;;;;;;;;5051134;28;20021;-83
2021/05/05 03:02:08;;;;;;;5.87;3.20;;;;;;;;;;5051047;28;20587;-83
2021/05/05 03:04:33;;;;;;;16.77;4.57;;;;;;;;;;5050542;28;20084;-83
2021/05/05 03:06:59;;;;;;;12.10;3.47;;;;;;;;;;5050856;28;20028;-83
2021/05/05 03:09:25;;;;;;;9.40;3.30;;;;;;;;;;5050540;28;20472;-82
2021/05/05 03:11:51;;;;;;;11.20;3.23;;;;;;;;;;5051878;28;20021;-83
2021/05/05 03:14:17;;;;;;;11.80;3.80;;;;;;;;;;5050383;28;20029;-83
2021/05/05 03:16:42;;;;;;;7.50;3.33;;;;;;;;;;5050613;28;20469;-83
2021/05/05 03:19:07;;;;;;;9.23;3.73;;;;;;;;;;5050788;28;20025;-83
2021/05/05 03:21:32;;;;;;;8.23;3.40;;;;;;;;;;5050464;28;20025;-83
2021/05/05 03:23:57;;;;;;;11.27;3.40;;;;;;;;;;5050881;28;20037;-83
2021/05/05 03:26:22;;;;;;;10.07;3.47;;;;;;;;;;5050202;28;20029;-83
2021/05/05 03:28:48;;;;;;;9.53;3.33;;;;;;;;;;5050650;28;20066;-82
2021/05/05 03:31:15;;;;;;;9.10;3.23;;;;;;;;;;5053546;28;20021;-83
2021/05/05 03:33:40;;;;;;;6.70;2.77;;;;;;;;;;5054928;28;20032;-83
2021/05/05 03:36:06;;;;;;;10.90;3.10;;;;;;;;;;5054849;28;20024;-83
2021/05/05 03:38:32;;;;;;;10.80;3.43;;;;;;;;;;5054529;28;20017;-83
2021/05/05 03:40:57;;;;;;;8.90;3.20;;;;;;;;;;5054526;28;20044;-83
2021/05/05 03:43:22;;;;;;;7.93;3.60;;;;;;;;;;5054341;28;20048;-83
2021/05/05 03:45:48;;;;;;;8.33;3.27;;;;;;;;;;5055916;28;20750;-83
2021/05/05 03:48:13;;;;;;;6.60;2.90;;;;;;;;;;5054392;28;20029;-83
2021/05/05 03:50:38;;;;;;;4.07;3.00;;;;;;;;;;5055863;28;20020;-83
2021/05/05 03:53:04;;;;;;;11.27;2.90;;;;;;;;;;5054531;28;20017;-83
2021/05/05 03:55:29;;;;;;;9.63;2.80;;;;;;;;;;5053967;28;20020;-83
2021/05/05 03:57:54;;;;;;;9.90;3.43;;;;;;;;;;5054437;28;20017;-83
2021/05/05 04:00:20;;;;;;;9.17;3.83;;;;;;;;;;5055694;28;20009;-83
2021/05/05 04:02:45;;;;;;;9.53;3.50;;;;;;;;;;5053693;28;20021;-83
2021/05/05 04:05:10;;;;;;;7.60;3.13;;;;;;;;;;5054203;28;20473;-83
2021/05/05 04:07:36;;;;;;;5.43;2.90;;;;;;;;;;5053747;28;20036;-82
2021/05/05 04:10:01;;;;;;;10.10;3.47;;;;;;;;;;5054158;28;20016;-83
2021/05/05 04:12:29;;;;;;;7.50;3.70;;;;;;;;;;5053989;28;20013;-83
2021/05/05 04:14:54;;;;;;;11.83;3.23;;;;;;;;;;5055174;28;20025;-83
2021/05/05 04:17:19;;;;;;;13.73;3.70;;;;;;;;;;5054147;28;20021;-83
2021/05/05 04:19:44;;;;;;;8.97;4.07;;;;;;;;;;5053688;28;20116;-83
2021/05/05 04:22:10;;;;;;;10.70;3.97;;;;;;;;;;5053753;28;20017;-83
2021/05/05 04:24:35;;;;;;;8.83;3.47;;;;;;;;;;5086966;28;20094;-83
2021/05/05 04:27:00;;;;;;;12.77;3.63;;;;;;;;;;5053901;28;20431;-83
2021/05/05 04:29:25;;;;;;;9.93;3.70;;;;;;;;;;5053785;28;20020;-83
2021/05/05 04:31:52;;;;;;;11.87;4.47;;;;;;;;;;5053511;28;20049;-83
2021/05/05 04:34:17;;;;;;;12.87;4.77;;;;;;;;;;5053717;28;20105;-83
2021/05/05 04:36:42;;;;;;;12.57;5.20;;;;;;;;;;5054727;28;20510;-84
2021/05/05 04:39:09;;;;;;;6.80;2.53;;;;;;;;;;5053789;28;20020;-83
2021/05/05 04:41:34;;;;;;;6.93;2.83;;;;;;;;;;5052734;28;20074;-84
2021/05/05 04:44:00;;;;;;;8.80;3.10;;;;;;;;;;5053455;28;20421;-83
2021/05/05 04:46:25;;;;;;;7.43;3.07;;;;;;;;;;5054910;28;20025;-84
2021/05/05 04:48:50;;;;;;;3.77;2.27;;;;;;;;;;5053139;28;20032;-83
2021/05/05 04:51:15;;;;;;;6.77;2.73;;;;;;;;;;5053382;28;20021;-84
2021/05/05 04:53:40;;;;;;;6.83;3.27;;;;;;;;;;5078300;28;20037;-84
2021/05/05 04:56:06;;;;;;;6.40;3.20;;;;;;;;;;5054612;28;20020;-84
2021/05/05 04:58:31;;;;;;;7.53;2.60;;;;;;;;;;5053212;28;20027;-84
2021/05/05 05:00:56;;;;;;;9.60;3.60;;;;;;;;;;5052554;28;20024;-83
2021/05/05 05:03:21;;;;;;;8.93;4.93;;;;;;;;;;5053214;28;20056;-83
2021/05/05 05:05:47;;;;;;;12.10;4.73;;;;;;;;;;5054110;28;20067;-83
2021/05/05 05:08:12;;;;;;;10.53;4.50;;;;;;;;;;5052950;28;20078;-84
2021/05/05 05:10:37;;;;;;;10.27;4.47;;;;;;;;;;5052921;28;20021;-83
2021/05/05 05:13:03;;;;;;;9.70;4.87;;;;;;;;;;5052655;28;20025;-83
2021/05/05 05:15:28;;;;;;;10.97;4.57;;;;;;;;;;5053032;28;20104;-83
2021/05/05 05:17:54;;;;;;;12.07;4.93;;;;;;;;;;5052612;28;20151;-83
2021/05/05 05:20:19;;;;;;;10.27;4.30;;;;;;;;;;5052811;28;20045;-83
2021/05/05 05:22:45;;;;;;;11.90;4.53;;;;;;;;;;5052718;28;20062;-83
2021/05/05 05:25:10;;;;;;;9.20;4.00;;;;;;;;;;5053839;28;20031;-84
2021/05/05 05:27:37;;;;;;;7.90;3.57;;;;;;;;;;5052831;28;20025;-84
2021/05/05 05:30:03;;;;;;;10.70;4.00;;;;;;;;;;5052380;28;20430;-84
2021/05/05 05:32:28;;;;;;;11.97;3.70;;;;;;;;;;5052672;28;20112;-84
2021/05/05 05:34:53;;;;;;;6.60;3.27;;;;;;;;;;5052281;28;20017;-84
2021/05/05 05:37:18;;;;;;;9.00;3.30;;;;;;;;;;5052458;28;20374;-83
2021/05/05 05:39:45;;;;;;;8.40;3.23;;;;;;;;;;5052204;28;20017;-83
2021/05/05 05:42:10;;;;;;;14.47;4.07;;;;;;;;;;5053865;28;20028;-84
2021/05/05 05:44:35;;;;;;;6.57;3.50;;;;;;;;;;5052533;28;20372;-84
2021/05/05 05:47:00;;;;;;;7.10;3.10;;;;;;;;;;5053300;28;20074;-83
2021/05/05 05:49:25;;;;;;;7.47;3.37;;;;;;;;;;5053636;28;20031;-83
2021/05/05 05:51:50;;;;;;;11.13;2.83;;;;;;;;;;5053349;28;20021;-83
2021/05/05 05:54:16;;;;;;;12.00;3.63;;;;;;;;;;5050840;28;20078;-84
2021/05/05 05:56:41;;;;;;;11.37;3.43;;;;;;;;;;5053277;28;20082;-84
2021/05/05 05:59:07;;;;;;;8.20;2.93;;;;;;;;;;5051536;28;20024;-83
2021/05/05 06:01:32;;;;;;;8.30;3.60;;;;;;;;;;5052127;28;20020;-83
2021/05/05 06:03:57;;;;;;;7.53;3.80;;;;;;;;;;5051503;28;20044;-83
2021/05/05 06:06:22;;;;;;;7.27;4.20;;;;;;;;;;5051816;28;20017;-84
2021/05/05 06:08:47;;;;;;;11.10;4.67;;;;;;;;;;5052002;28;20033;-84
2021/05/05 06:11:12;;;;;;;10.03;4.47;;;;;;;;;;5052743;28;20366;-84
2021/05/05 06:13:38;;;;;;;9.23;4.40;;;;;;;;;;5051590;28;20025;-84
2021/05/05 06:16:03;;;;;;;12.77;4.40;;;;;;;;;;5051566;28;20024;-84
2021/05/05 06:18:28;;;;;;;8.80;3.90;;;;;;;;;;5051321;28;20052;-84
2021/05/05 06:20:54;;;;;;;11.00;5.03;;;;;;;;;;5051705;28;20530;-84
2021/05/05 06:23:19;;;;;;;7.97;4.70;;;;;;;;;;5083950;28;20049;-84
2021/05/05 06:25:44;;;;;;;9.47;4.63;;;;;;;;;;5052950;28;20107;-84
2021/05/05 06:28:09;;;;;;;11.47;5.40;;;;;;;;;;5051271;28;20016;-84
2021/05/05 06:30:35;;;;;;;9.37;4.97;;;;;;;;;;5051467;28;20096;-84
2021/05/05 06:33:00;;;;;;;16.00;5.40;;;;;;;;;;5051395;28;20024;-84
2021/05/05 06:35:25;;;;;;;14.87;5.57;;;;;;;;;;5051078;28;20031;-84
2021/05/05 06:37:50;;;;;;;16.53;5.40;;;;;;;;;;5052585;28;20048;-85
2021/05/05 06:40:16;;;;;;;10.30;5.30;;;;;;;;;;5051043;28;20021;-84
2021/05/05 06:42:41;;;;;;;11.00;5.00;;;;;;;;;;5051314;28;20441;-84
2021/05/05 06:45:07;;;;;;;11.30;5.60;;;;;;;;;;5051110;28;20161;-84
2021/05/05 06:47:32;;;;;;;9.03;4.53;;;;;;;;;;5050880;28;20024;-84
2021/05/05 06:49:58;;;;;;;7.60;4.63;;;;;;;;;;5051131;28;20380;-84
2021/05/05 06:52:23;;;;;;;7.00;4.67;;;;;;;;;;5050800;28;20013;-84
2021/05/05 06:54:48;;;;;;;8.87;4.37;;;;;;;;;;5052371;28;20032;-84
2021/05/05 06:57:14;;;;;;;10.20;5.53;;;;;;;;;;5050909;28;20025;-84
2021/05/05 06:59:39;;;;;;;9.13;4.73;;;;;;;;;;5050971;28;20056;-84
2021/05/05 07:02:04;;;;;;;13.40;6.30;;;;;;;;;;5050941;28;20140;-84
2021/05/05 07:04:29;;;;;;;13.03;5.20;;;;;;;;;;5050471;28;20384;-84
2021/05/05 07:06:55;;;;;;;12.63;4.90;;;;;;;;;;5051027;28;20104;-84
2021/05/05 07:09:20;;;;;;;11.63;5.70;;;;;;;;;;5050683;28;20067;-84
2021/05/05 07:11:45;;;;;;;14.33;5.60;;;;;;;;;;5050715;28;20435;-84
2021/05/05 07:14:10;;;;;;;9.80;5.70;;;;;;;;;;5051971;28;20037;-83
2021/05/05 07:16:36;;;;;;;10.03;5.90;;;;;;;;;;5050936;28;20052;-84
2021/05/05 07:19:02;;;;;;;11.40;6.50;;;;;;;;;;5050764;28;20440;-84
2021/05/05 07:21:28;;;;;;;13.87;6.93;;;;;;;;;;5049976;28;20021;-84
2021/05/05 07:23:53;;;;;;;14.10;6.13;;;;;;;;;;5050803;28;20530;-84
2021/05/05 07:26:18;;;;;;;12.33;6.37;;;;;;;;;;5050465;28;20036;-84
2021/05/05 07:28:45;;;;;;;12.20;5.50;;;;;;;;;;5052153;28;20016;-84
2021/05/05 07:31:11;;;;;;;10.13;5.60;;;;;;;;;;5050452;28;20417;-83
2021/05/05 07:33:36;;;;;;;9.93;4.53;;;;;;;;;;5050362;28;20017;-84
2021/05/05 07:36:02;;;;;;;7.50;3.93;;;;;;;;;;5050664;28;20032;-83
2021/05/05 07:46:23;;;;;;;6.00;2.60;;;;;;;;;;5051795;28;20025;-84
2021/05/05 07:48:54;;;;;;;7.30;2.70;;;;;;;;;;5049817;28;20043;-84
2021/05/05 07:51:19;;;;;;;11.97;3.30;;;;;;;;;;5049876;28;20017;-84
2021/05/05 07:53:45;;;;;;;8.97;3.57;;;;;;;;;;5047565;28;20025;-84
2021/05/05 07:56:10;;;;;;;9.60;3.47;;;;;;;;;;5050221;28;20070;-84
2021/05/05 07:58:36;;;;;;;7.30;3.17;;;;;;;;;;5049254;28;20037;-84
2021/05/05 08:01:01;;;;;;;9.23;3.17;;;;;;;;;;5049880;28;20059;-84
2021/05/05 08:03:27;;;;;;;12.70;3.20;;;;;;;;;;5050330;28;20104;-84
2021/05/05 08:05:52;;;;;;;8.07;3.60;;;;;;;;;;5049441;28;20029;-84
2021/05/05 08:08:17;;;;;;;7.27;3.20;;;;;;;;;;5050423;28;20105;-84
2021/05/05 08:10:42;;;;;;;11.10;3.40;;;;;;;;;;5050097;28;20478;-84
2021/05/05 08:13:08;;;;;;;12.30;4.40;;;;;;;;;;5050159;28;20116;-84
2021/05/05 08:15:34;;;;;;;5.50;1.93;;;;;;;;;;5050141;28;20427;-84
2021/05/05 08:18:03;;;;;;;3.60;1.67;;;;;;;;;;5052091;28;20100;-84
2021/05/05 08:20:28;;;;;;;6.93;2.33;;;;;;;;;;5055332;28;20021;-84
2021/05/05 08:22:54;;;;;;;4.40;1.93;;;;;;;;;;5053322;28;20429;-85
2021/05/05 08:25:19;;;;;;;5.37;1.97;;;;;;;;;;5053990;28;20052;-84
2021/05/05 08:27:44;;;;;;;6.40;2.17;;;;;;;;;;5054895;28;20036;-83
2021/05/05 08:30:10;;;;;;;8.80;2.20;;;;;;;;;;5053673;28;20017;-83
2021/05/05 08:32:35;;;;;;;11.97;1.97;;;;;;;;;;5084077;28;20028;-83
2021/05/05 08:35:01;;;;;;;11.43;2.10;;;;;;;;;;5052292;28;20025;-82
2021/05/05 08:37:26;;;;;;;12.03;1.70;;;;;;;;;;5054696;28;20384;-83
2021/05/05 08:39:51;;;;;;;7.10;1.80;;;;;;;;;;5052563;28;20140;-83
2021/05/05 08:42:16;;;;;;;9.57;2.10;;;;;;;;;;5053243;28;20104;-83
2021/05/05 08:44:45;;;;;;;6.50;1.63;;;;;;;;;;5053395;28;20048;-83
2021/05/05 08:47:11;;;;;;;9.47;1.93;;;;;;;;;;5084710;28;20108;-83
2021/05/05 08:49:36;;;;;;;15.17;2.50;;;;;;;;;;5052982;28;20146;-83
2021/05/05 08:52:01;;;;;;;11.40;2.30;;;;;;;;;;5052810;28;20039;-83
2021/05/05 08:54:26;;;;;;;13.67;2.80;;;;;;;;;;5052553;28;20032;-83
2021/05/05 08:56:55;;;;;;;14.90;2.73;;;;;;;;;;5078292;28;20116;-83
2021/05/05 08:59:20;;;;;;;11.50;2.23;;;;;;;;;;5053297;28;20020;-83
2021/05/05 09:01:45;;;;;;;12.67;2.70;;;;;;;;;;5052998;28;20009;-83
2021/05/05 09:04:11;;;;;;;18.47;3.30;;;;;;;;;;5052431;28;20049;-83
2021/05/05 09:06:42;;;;;;;12.20;3.10;;;;;;;;;;5053204;28;20017;-83
2021/05/05 09:09:07;;;;;;;11.43;2.90;;;;;;;;;;5052178;28;20025;-83
2021/05/05 09:11:43;;;;;;;13.47;2.70;;;;;;;;;;5052537;28;20369;-83
2021/05/05 09:14:08;;;;;;;18.43;3.50;;;;;;;;;;5051795;28;20071;-83
2021/05/05 09:16:33;;;;;;;12.50;3.90;;;;;;;;;;5053139;28;20017;-83
2021/05/05 09:19:00;;;;;;;18.40;4.03;;;;;;;;;;5054064;28;20100;-83
2021/05/05 09:21:30;;;;;;;15.17;3.40;;;;;;;;;;5051919;28;20016;-83
2021/05/05 09:24:12;;;;;;;18.90;4.00;;;;;;;;;;5052570;28;20107;-83
2021/05/05 09:26:38;;;;;;;15.07;2.95;;;;;;;;;;5053590;28;20449;-83
2021/05/05 09:29:03;;;;;;;13.17;3.10;;;;;;;;;;5053340;28;20112;-83
2021/05/05 09:31:35;;;;;;;17.57;3.87;;;;;;;;;;5050704;28;20021;-84
2021/05/05 09:34:01;;;;;;;10.30;2.97;;;;;;;;;;5051648;28;20031;-83
2021/05/05 09:36:27;;;;;;;17.10;3.07;;;;;;;;;;5051863;28;20485;-83
2021/05/05 09:38:52;;;;;;;11.13;2.63;;;;;;;;;;5047656;28;20025;-83
2021/05/05 09:41:18;;;;;;;9.40;2.87;;;;;;;;;;5081547;28;20124;-84
2021/05/05 09:43:43;;;;;;;13.53;3.30;;;;;;;;;;5051831;28;20059;-83
2021/05/05 09:46:27;;;;;;;5.93;1.60;;;;;;;;;;5051959;28;20020;-83
2021/05/05 09:48:53;;;;;;;11.67;2.03;;;;;;;;;;5046702;28;20029;-83
2021/05/05 09:51:18;;;;;;;5.20;2.03;;;;;;;;;;5051998;28;20028;-83
2021/05/05 09:53:46;;;;;;;12.37;2.53;;;;;;;;;;5051406;28;20017;-83
2021/05/05 09:56:12;;;;;;;10.00;2.57;;;;;;;;;;5051510;28;20032;-84
2021/05/05 09:58:41;;;;;;;13.37;2.07;;;;;;;;;;5052041;28;20380;-83
2021/05/05 10:01:07;;;;;;;7.40;1.90;;;;;;;;;;5051793;28;20028;-83
2021/05/05 10:03:49;;;;;;;2.10;0.83;;;;;;;;;;5052550;28;20013;-83
2021/05/05 10:06:45;;;;;;;9.80;1.80;;;;;;;;;;5052759;28;20013;-84
2021/05/05 10:09:11;;;;;;;8.67;1.73;;;;;;;;;;5070324;28;20025;-83
2021/05/05 10:11:37;;;;;;;5.67;1.40;;;;;;;;;;5051890;28;20489;-82
2021/05/05 10:14:09;;;;;;;11.13;2.13;;;;;;;;;;5050960;28;20029;-82
2021/05/05 10:16:39;;;;;;;12.02;2.10;;;;;;;;;;5081234;28;20109;-82
2021/05/05 10:19:04;;;;;;;9.90;2.20;;;;;;;;;;5051604;28;20024;-83
2021/05/05 10:21:30;;;;;;;9.07;1.93;;;;;;;;;;5051441;28;20376;-82
2021/05/05 10:23:59;;;;;;;6.07;1.73;;;;;;;;;;5050749;28;20020;-83
2021/05/05 10:26:26;;;;;;;10.90;1.90;;;;;;;;;;5080315;28;20025;-82
2021/05/05 10:28:51;;;;;;;10.50;2.00;;;;;;;;;;5051403;28;20036;-82
2021/05/05 10:31:23;;;;;;;8.95;1.88;;;;;;;;;;5052697;28;20024;-82
2021/05/05 10:33:50;;;;;;;11.73;2.00;;;;;;;;;;5051372;28;20435;-83
2021/05/05 10:36:34;;;;;;;6.25;1.75;;;;;;;;;;5052188;28;20033;-82
2021/05/05 10:39:00;;;;;;;6.18;1.65;;;;;;;;;;5045622;28;20108;-83
2021/05/05 10:41:25;;;;;;;11.63;1.73;;;;;;;;;;5051997;28;20511;-84
2021/05/05 10:43:51;;;;;;;11.37;2.07;;;;;;;;;;5050792;28;20051;-84
2021/05/05 10:46:24;;;;;;;12.77;2.27;;;;;;;;;;5051197;28;20021;-84
2021/05/05 10:49:01;;;;;;;7.80;2.17;;;;;;;;;;5051797;28;20104;-85
2021/05/05 10:51:48;;;;;;;6.40;1.53;;;;;;;;;;5052464;28;20016;-84
2021/05/05 10:54:17;;;;;;;7.33;2.03;;;;;;;;;;5046254;28;20418;-85
2021/05/05 10:56:46;;;;;;;7.23;1.70;;;;;;;;;;5052107;28;20096;-84
2021/05/05 10:59:12;;;;;;;8.10;1.40;;;;;;;;;;5051790;28;20408;-83
2021/05/05 11:01:42;;;;;;;14.67;2.53;;;;;;;;;;5050349;28;20020;-84
2021/05/05 11:04:08;;;;;;;12.17;1.70;;;;;;;;;;5050612;28;20021;-85
2021/05/05 11:06:36;;;;;;;12.00;1.90;;;;;;;;;;5052408;28;20087;-83
2021/05/05 11:09:17;;;;;;;16.00;2.60;;;;;;;;;;5050839;28;20032;-83
2021/05/05 11:11:50;;;;;;;7.27;1.67;;;;;;;;;;5049983;28;20033;-83
2021/05/05 11:14:15;;;;;;;;;;;;;;;;;;5051856;28;20036;-84
2021/05/05 11:16:59;;;;;;;5.13;1.00;;;;;;;;;;5050446;28;19912;-83
2021/05/05 11:22:03;;;;;;;8.37;1.80;;;;;;;;;;5044167;28;20025;-84
2021/05/05 11:24:29;;;;;;;10.30;2.22;;;;;;;;;;5049371;28;20104;-84
2021/05/05 11:26:54;;;;;;;9.70;2.20;;;;;;;;;;5050601;28;20424;-84
2021/05/05 11:29:30;;;;;;;7.70;1.73;;;;;;;;;;5050620;28;20020;-85
2021/05/05 11:31:55;;;;;;;5.00;1.33;;;;;;;;;;5079442;28;20070;-85
2021/05/05 11:34:23;;;;;;;5.08;1.38;;;;;;;;;;5050123;28;20033;-84
2021/05/05 11:36:55;;;;;;;6.60;1.33;;;;;;;;;;5051449;28;20033;-84
2021/05/05 11:39:20;;;;;;;10.50;1.70;;;;;;;;;;5051347;28;20037;-84
2021/05/05 11:41:59;;;;;;;7.60;2.03;;;;;;;;;;5050402;28;20098;-84
2021/05/05 11:44:39;;;;;;;8.90;1.80;;;;;;;;;;5050029;28;20111;-83
2021/05/05 11:47:06;;;;;;;10.93;1.87;;;;;;;;;;5049886;28;20029;-83
2021/05/05 11:49:32;;;;;;;12.53;1.70;;;;;;;;;;5050429;28;20021;-83
2021/05/05 11:51:58;;;;;;;5.20;1.55;;;;;;;;;;5052798;28;20025;-83
2021/05/05 11:54:28;;;;;;;3.83;1.45;;;;;;;;;;5054307;28;20024;-83
2021/05/05 11:57:03;;;;;;;10.80;2.20;;;;;;;;;;5053859;28;20083;-83
2021/05/05 11:59:29;;;;;;;10.07;2.00;;;;;;;;;;5055065;28;20380;-83
2021/05/05 12:02:01;;;;;;;8.00;1.90;;;;;;;;;;5054387;28;20021;-83
2021/05/05 12:04:27;;;;;;;9.35;1.80;;;;;;;;;;5053596;28;20116;-82
2021/05/05 12:06:56;;;;;;;7.25;1.80;;;;;;;;;;5054023;28;20056;-83
2021/05/05 12:09:26;;;;;;;3.22;1.40;;;;;;;;;;5053334;28;20021;-83
2021/05/05 12:12:28;;;;;;;7.88;1.40;;;;;;;;;;5053046;28;20049;-83
2021/05/05 12:14:55;;;;;;;10.70;2.42;;;;;;;;;;5002825;28;20036;-83
2021/05/05 12:17:29;;;;;;;7.65;1.90;;;;;;;;;;5047522;28;20090;-83
2021/05/05 12:19:54;;;;;;;7.45;1.90;;;;;;;;;;5054077;28;20021;-83
2021/05/05 12:22:19;;;;;;;11.15;2.25;;;;;;;;;;5054423;28;20074;-83
2021/05/05 12:25:03;;;;;;;8.75;1.27;;;;;;;;;;5053987;28;20060;-83
2021/05/05 12:27:28;;;;;;;6.15;1.40;;;;;;;;;;5054995;28;20468;-83
2021/05/05 12:30:00;;;;;;;5.07;1.58;;;;;;;;;;5053659;28;20051;-83
2021/05/05 12:32:42;;;;;;;8.25;1.50;;;;;;;;;;5053904;28;20046;-83
2021/05/05 12:35:11;;;;;;;7.70;1.83;;;;;;;;;;5053412;28;20083;-83
2021/05/05 12:37:36;;;;;;;8.60;1.75;;;;;;;;;;5053657;28;20049;-83
2021/05/05 12:40:03;;;;;;;6.40;1.60;;;;;;;;;;5053412;28;20487;-83
2021/05/05 12:42:33;;;;;;;3.95;1.52;;;;;;;;;;5046098;28;20025;-83
2021/05/05 12:45:08;;;;;;;6.32;1.63;;;;;;;;;;5053545;28;20052;-83
2021/05/05 12:47:34;;;;;;;7.97;2.05;;;;;;;;;;5062934;28;20384;-84
2021/05/05 12:49:59;;;;;;;6.68;1.77;;;;;;;;;;5053549;28;20029;-82
2021/05/05 12:52:24;;;;;;;6.07;1.50;;;;;;;;;;5053312;28;20029;-83
2021/05/05 12:54:49;;;;;;;4.43;1.75;;;;;;;;;;5053374;28;20025;-83
2021/05/05 12:57:16;;;;;;;3.50;1.50;;;;;;;;;;5052809;28;20020;-83
2021/05/05 12:59:41;;;;;;;8.35;2.20;;;;;;;;;;5053397;28;20020;-83
2021/05/05 13:02:11;;;;;;;4.55;1.35;;;;;;;;;;5053097;28;20151;-83
2021/05/05 13:04:36;;;;;;;8.35;1.67;;;;;;;;;;5052752;28;20017;-83
2021/05/05 13:07:01;;;;;;;4.14;1.50;;;;;;;;;;5053328;28;20059;-83
2021/05/05 13:09:26;;;;;;;7.35;2.00;;;;;;;;;;5054136;28;20090;-83
2021/05/05 13:12:06;;;;;;;4.32;1.45;;;;;;;;;;5053004;28;20044;-83
2021/05/05 13:14:48;;;;;;;6.32;1.20;;;;;;;;;;5075436;28;20024;-83
2021/05/05 13:17:34;;;;;;;6.43;1.67;;;;;;;;;;5053088;28;20315;-83
2021/05/05 14:42:47;;;;;;;8.05;2.20;;;;;;;;;;5041228;28;20415;-82
2021/05/05 14:48:00;;;;;;;5.95;2.20;;;;;;;;;;5040687;28;20082;-82
2021/05/05 14:50:26;;;;;;;10.68;2.38;;;;;;;;;;5039005;28;20116;-82
2021/05/05 14:52:51;;;;;;;5.47;2.10;;;;;;;;;;5028710;28;20048;-81
2021/05/05 14:55:16;;;;;;;10.40;2.25;;;;;;;;;;5035314;28;20105;-81
2021/05/05 14:57:45;;;;;;;4.78;1.80;;;;;;;;;;5035667;28;20060;-82
2021/05/05 15:00:11;;;;;;;10.73;2.30;;;;;;;;;;5040684;28;20032;-82
2021/05/05 15:02:36;;;;;;;6.63;2.00;;;;;;;;;;5034747;28;20024;-81
2021/05/05 15:05:02;;;;;;;5.10;1.90;;;;;;;;;;5061822;28;20471;-81
2021/05/05 15:07:30;;;;;;;12.07;2.13;;;;;;;;;;5037885;28;20030;-81
2021/05/05 15:10:04;;;;;;;7.00;2.10;;;;;;;;;;5035275;28;20022;-81
2021/05/05 15:35:48;;;;;;;8.13;2.13;;;;;;;;;;5067588;28;20048;-82
2021/05/05 15:38:20;;;;;;;5.28;2.22;;;;;;;;;;5034785;28;20525;-82
2021/05/05 15:40:59;;;;;;;4.15;1.48;;;;;;;;;;5033677;28;20022;-81
2021/05/05 15:48:33;;;;;;;5.63;2.00;;;;;;;;;;5023568;28;20022;-82
2021/05/05 15:50:58;;;;;;;5.72;2.50;;;;;;;;;;5023635;28;20090;-82
2021/05/05 15:55:58;;;;;;;5.18;2.10;;;;;;;;;;5020242;28;20021;-82
2021/05/05 15:58:25;;;;;;;5.32;2.00;;;;;;;;;;5019819;28;20038;-82
2021/05/05 16:00:55;;;;;;;5.97;1.98;;;;;;;;;;5019553;28;20446;-82
2021/05/05 16:11:50;;;;;;;5.40;1.92;;;;;;;;;;5018878;28;20048;-82
2021/05/05 16:17:00;;;;;;;8.20;1.55;;;;;;;;;;5012293;28;20041;-80
2021/05/05 16:19:27;;;;;;;4.20;1.55;;;;;;;;;;5025667;28;20017;-81
2021/05/05 16:22:00;;;;;;;4.10;1.70;;;;;;;;;;5015736;28;20426;-80
2021/05/05 17:00:26;;;;;;;5.43;1.88;;;;;;;;;;5010971;28;20418;-79
2021/05/05 17:10:09;;;;;;;4.57;1.58;;;;;;;;;;5015403;28;20556;-81
2021/05/05 17:12:35;;;;;;;9.25;2.28;;;;;;;;;;5024583;28;20719;-81
2021/05/05 17:15:07;;;;;;;6.18;2.10;;;;;;;;;;5015838;28;20025;-81
2021/05/05 17:17:59;;;;;;;4.13;1.45;;;;;;;;;;5017890;28;20086;-82
2021/05/05 17:20:46;;;;;;;8.68;2.10;;;;;;;;;;5012022;28;20086;-81
2021/05/05 17:23:23;;;;;;;4.70;2.15;;;;;;;;;;5010271;28;20110;-81
2021/05/05 17:28:30;;;;;;;10.30;2.65;;;;;;;;;;5011063;28;20094;-81
2021/05/05 17:52:45;;;;;;;10.57;2.65;;;;;;;;;;5016075;28;20029;-80
2021/05/05 18:14:56;;;;;;;6.88;2.78;;;;;;;;;;5056873;28;20032;-81
2021/05/05 18:17:28;;;;;;;11.15;2.38;;;;;;;;;;5026888;28;20022;-81
2021/05/05 18:19:57;;;;;;;8.98;2.92;;;;;;;;;;5022421;28;20043;-81
2021/05/05 18:22:29;;;;;;;6.15;2.38;;;;;;;;;;5031726;28;20079;-82